sensor_id;sensor_type;location;lat;lon;timestamp;pressure;altitude;pressure_sealevel;temperature;humidity
75192;BME280;63771;52.580;9.734;2023-04-01T00:01:42;99142.50;;;9.58;93.80
75192;BME280;63771;52.580;9.734;2023-04-01T00:04:07;99144.25;;;9.59;93.91
75192;BME280;63771;52.580;9.734;2023-04-01T00:06:33;99139.88;;;9.57;93.88
75192;BME280;63771;52.580;9.734;2023-04-01T00:08:58;99149.47;;;9.61;94.04
75192;BME280;63771;52.580;9.734;2023-04-01T00:11:24;99148.66;;;9.62;94.19
75192;BME280;63771;52.580;9.734;2023-04-01T00:13:52;99147.78;;;9.61;93.91
75192;BME280;63771;52.580;9.734;2023-04-01T00:16:18;99146.13;;;9.62;94.00
75192;BME280;63771;52.580;9.734;2023-04-01T00:18:43;99138.50;;;9.62;94.19
75192;BME280;63771;52.580;9.734;2023-04-01T00:21:08;99133.19;;;9.59;93.99
75192;BME280;63771;52.580;9.734;2023-04-01T00:23:34;99136.03;;;9.63;94.17
75192;BME280;63771;52.580;9.734;2023-04-01T00:26:01;99132.59;;;9.63;93.96
75192;BME280;63771;52.580;9.734;2023-04-01T00:28:27;99134.34;;;9.64;94.08
75192;BME280;63771;52.580;9.734;2023-04-01T00:30:53;99134.28;;;9.62;94.18
75192;BME280;63771;52.580;9.734;2023-04-01T00:33:18;99134.34;;;9.64;94.19
75192;BME280;63771;52.580;9.734;2023-04-01T00:35:45;99137.78;;;9.64;94.28
75192;BME280;63771;52.580;9.734;2023-04-01T00:38:11;99136.91;;;9.64;93.97
75192;BME280;63771;52.580;9.734;2023-04-01T00:40:39;99135.22;;;9.64;94.07
75192;BME280;63771;52.580;9.734;2023-04-01T00:43:15;99131.81;;;9.64;94.15
75192;BME280;63771;52.580;9.734;2023-04-01T00:45:43;99136.91;;;9.64;94.09
75192;BME280;63771;52.580;9.734;2023-04-01T00:51:17;99140.25;;;9.63;94.30
75192;BME280;63771;52.580;9.734;2023-04-01T00:53:45;99140.25;;;9.63;94.37
75192;BME280;63771;52.580;9.734;2023-04-01T00:56:15;99141.91;;;9.62;94.16
75192;BME280;63771;52.580;9.734;2023-04-01T00:58:46;99142.78;;;9.63;94.46
75192;BME280;63771;52.580;9.734;2023-04-01T01:01:14;99141.13;;;9.63;94.42
75192;BME280;63771;52.580;9.734;2023-04-01T01:03:40;99147.88;;;9.63;94.37
75192;BME280;63771;52.580;9.734;2023-04-01T01:08:43;99146.22;;;9.63;94.24
75192;BME280;63771;52.580;9.734;2023-04-01T01:11:14;99147.00;;;9.62;94.40
75192;BME280;63771;52.580;9.734;2023-04-01T01:16:22;99142.78;;;9.63;94.29
75192;BME280;63771;52.580;9.734;2023-04-01T01:19:01;99145.34;;;9.63;94.46
75192;BME280;63771;52.580;9.734;2023-04-01T01:21:40;99141.91;;;9.62;94.39
75192;BME280;63771;52.580;9.734;2023-04-01T01:27:17;99141.81;;;9.61;94.43
75192;BME280;63771;52.580;9.734;2023-04-01T01:35:43;99134.94;;;9.60;94.54
75192;BME280;63771;52.580;9.734;2023-04-01T01:38:16;99134.94;;;9.60;94.49
75192;BME280;63771;52.580;9.734;2023-04-01T01:40:46;99131.53;;;9.59;94.58
75192;BME280;63771;52.580;9.734;2023-04-01T01:43:16;99136.72;;;9.61;94.37
75192;BME280;63771;52.580;9.734;2023-04-01T01:45:47;99124.59;;;9.57;94.51
75192;BME280;63771;52.580;9.734;2023-04-01T01:48:14;99136.72;;;9.61;94.43
75192;BME280;63771;52.580;9.734;2023-04-01T01:50:41;99132.41;;;9.60;94.50
75192;BME280;63771;52.580;9.734;2023-04-01T01:53:10;99134.94;;;9.60;94.68
75192;BME280;63771;52.580;9.734;2023-04-01T01:55:38;99134.06;;;9.59;94.36
75192;BME280;63771;52.580;9.734;2023-04-01T01:58:21;99140.03;;;9.60;94.48
75192;BME280;63771;52.580;9.734;2023-04-01T02:01:03;99142.59;;;9.60;94.46
75192;BME280;63771;52.580;9.734;2023-04-01T02:03:33;99144.25;;;9.59;94.24
75192;BME280;63771;52.580;9.734;2023-04-01T02:06:04;99133.03;;;9.56;94.16
75192;BME280;63771;52.580;9.734;2023-04-01T02:08:41;99143.38;;;9.59;94.27
75192;BME280;63771;52.580;9.734;2023-04-01T02:11:10;99135.59;;;9.56;94.13
75192;BME280;63771;52.580;9.734;2023-04-01T02:13:43;99143.22;;;9.56;94.15
75192;BME280;63771;52.580;9.734;2023-04-01T02:16:13;99145.66;;;9.54;93.96
75192;BME280;63771;52.580;9.734;2023-04-01T02:18:41;99135.38;;;9.53;93.81
75192;BME280;63771;52.580;9.734;2023-04-01T02:21:08;99143.03;;;9.53;93.65
75192;BME280;63771;52.580;9.734;2023-04-01T02:23:36;99141.06;;;9.49;93.62
75192;BME280;63771;52.580;9.734;2023-04-01T02:26:06;99135.19;;;9.50;93.92
75192;BME280;63771;52.580;9.734;2023-04-01T02:28:32;99145.28;;;9.48;93.79
75192;BME280;63771;52.580;9.734;2023-04-01T02:30:59;99134.16;;;9.46;93.94
75192;BME280;63771;52.580;9.734;2023-04-01T02:33:28;99142.66;;;9.47;93.91
75192;BME280;63771;52.580;9.734;2023-04-01T02:35:55;99140.03;;;9.45;93.87
75192;BME280;63771;52.580;9.734;2023-04-01T02:38:20;99145.81;;;9.43;93.73
75192;BME280;63771;52.580;9.734;2023-04-01T02:40:49;99140.72;;;9.43;93.97
75192;BME280;63771;52.580;9.734;2023-04-01T02:43:15;99144.03;;;9.41;93.96
75192;BME280;63771;52.580;9.734;2023-04-01T02:45:41;99146.59;;;9.41;93.82
75192;BME280;63771;52.580;9.734;2023-04-01T02:48:07;99149.81;;;9.39;94.17
75192;BME280;63771;52.580;9.734;2023-04-01T02:50:32;99148.06;;;9.38;94.10
75192;BME280;63771;52.580;9.734;2023-04-01T02:52:58;99148.84;;;9.37;94.19
75192;BME280;63771;52.580;9.734;2023-04-01T02:55:23;99153.16;;;9.38;94.26
75192;BME280;63771;52.580;9.734;2023-04-01T02:57:48;99152.28;;;9.37;94.25
75192;BME280;63771;52.580;9.734;2023-04-01T03:00:14;99151.31;;;9.35;94.31
75192;BME280;63771;52.580;9.734;2023-04-01T03:02:40;99146.22;;;9.35;94.26
75192;BME280;63771;52.580;9.734;2023-04-01T03:05:06;99151.19;;;9.34;94.36
75192;BME280;63771;52.580;9.734;2023-04-01T03:07:32;99158.94;;;9.35;94.10
75192;BME280;63771;52.580;9.734;2023-04-01T03:09:58;99156.19;;;9.32;94.17
75192;BME280;63771;52.580;9.734;2023-04-01T03:12:23;99157.19;;;9.34;94.13
75192;BME280;63771;52.580;9.734;2023-04-01T03:14:48;99157.19;;;9.34;93.97
75192;BME280;63771;52.580;9.734;2023-04-01T03:17:14;99159.75;;;9.34;94.16
75192;BME280;63771;52.580;9.734;2023-04-01T03:19:39;99166.47;;;9.34;94.11
75192;BME280;63771;52.580;9.734;2023-04-01T03:22:04;99160.50;;;9.33;94.42
75192;BME280;63771;52.580;9.734;2023-04-01T03:24:30;99160.50;;;9.33;94.31
75192;BME280;63771;52.580;9.734;2023-04-01T03:26:55;99164.63;;;9.31;94.43
75192;BME280;63771;52.580;9.734;2023-04-01T03:29:20;99162.09;;;9.31;94.41
75192;BME280;63771;52.580;9.734;2023-04-01T03:31:46;99165.31;;;9.29;94.22
75192;BME280;63771;52.580;9.734;2023-04-01T03:34:11;99172.06;;;9.28;94.55
75192;BME280;63771;52.580;9.734;2023-04-01T03:36:36;99168.75;;;9.29;94.48
75192;BME280;63771;52.580;9.734;2023-04-01T03:39:02;99170.41;;;9.29;94.31
75192;BME280;63771;52.580;9.734;2023-04-01T03:41:29;99172.06;;;9.28;94.36
75192;BME280;63771;52.580;9.734;2023-04-01T03:43:55;99182.25;;;9.28;94.44
75192;BME280;63771;52.580;9.734;2023-04-01T03:46:20;99178.94;;;9.29;94.18
75192;BME280;63771;52.580;9.734;2023-04-01T03:48:46;99172.94;;;9.29;94.36
75192;BME280;63771;52.580;9.734;2023-04-01T03:51:11;99173.84;;;9.29;94.25
75192;BME280;63771;52.580;9.734;2023-04-01T03:53:36;99172.06;;;9.28;94.37
75192;BME280;63771;52.580;9.734;2023-04-01T03:56:06;99172.06;;;9.28;94.42
75192;BME280;63771;52.580;9.734;2023-04-01T03:58:31;99177.16;;;9.28;94.18
75192;BME280;63771;52.580;9.734;2023-04-01T04:00:56;99178.75;;;9.26;94.21
75192;BME280;63771;52.580;9.734;2023-04-01T04:03:22;99177.94;;;9.27;94.28
75192;BME280;63771;52.580;9.734;2023-04-01T04:05:49;99175.41;;;9.27;94.31
75192;BME280;63771;52.580;9.734;2023-04-01T04:08:16;99184.63;;;9.25;93.91
75192;BME280;63771;52.580;9.734;2023-04-01T04:10:41;99176.00;;;9.23;94.21
75192;BME280;63771;52.580;9.734;2023-04-01T04:13:07;99181.88;;;9.22;94.31
75192;BME280;63771;52.580;9.734;2023-04-01T04:15:32;99182.06;;;9.25;94.18
75192;BME280;63771;52.580;9.734;2023-04-01T04:17:58;99188.03;;;9.26;94.22
75192;BME280;63771;52.580;9.734;2023-04-01T04:20:25;99181.78;;;9.21;94.06
75192;BME280;63771;52.580;9.734;2023-04-01T04:22:50;99187.03;;;9.24;94.17
75192;BME280;63771;52.580;9.734;2023-04-01T04:25:15;99190.28;;;9.21;94.32
75192;BME280;63771;52.580;9.734;2023-04-01T04:27:41;99191.25;;;9.23;94.25
75192;BME280;63771;52.580;9.734;2023-04-01T04:30:07;99186.97;;;9.22;94.38
75192;BME280;63771;52.580;9.734;2023-04-01T04:32:33;99190.28;;;9.21;94.46
75192;BME280;63771;52.580;9.734;2023-04-01T04:34:58;99194.44;;;9.19;94.31
75192;BME280;63771;52.580;9.734;2023-04-01T04:37:23;99195.38;;;9.21;94.50
75192;BME280;63771;52.580;9.734;2023-04-01T04:39:50;99204.69;;;9.21;94.32
75192;BME280;63771;52.580;9.734;2023-04-01T04:42:16;99197.84;;;9.20;94.37
75192;BME280;63771;52.580;9.734;2023-04-01T04:44:41;99201.16;;;9.19;94.30
75192;BME280;63771;52.580;9.734;2023-04-01T04:47:07;99198.44;;;9.15;94.46
75192;BME280;63771;52.580;9.734;2023-04-01T04:49:32;99199.38;;;9.18;94.40
75192;BME280;63771;52.580;9.734;2023-04-01T04:51:57;99207.81;;;9.17;94.42
75192;BME280;63771;52.580;9.734;2023-04-01T04:54:23;99205.34;;;9.18;94.60
75192;BME280;63771;52.580;9.734;2023-04-01T04:56:48;99208.78;;;9.19;94.26
75192;BME280;63771;52.580;9.734;2023-04-01T04:59:15;99214.78;;;9.19;94.60
75192;BME280;63771;52.580;9.734;2023-04-01T05:01:41;99212.22;;;9.19;94.41
75192;BME280;63771;52.580;9.734;2023-04-01T05:04:06;99218.09;;;9.18;94.23
75192;BME280;63771;52.580;9.734;2023-04-01T05:06:31;99218.09;;;9.18;94.44
75192;BME280;63771;52.580;9.734;2023-04-01T05:08:57;99218.88;;;9.17;94.40
75192;BME280;63771;52.580;9.734;2023-04-01T05:11:22;99227.50;;;9.19;94.52
75192;BME280;63771;52.580;9.734;2023-04-01T05:13:48;99217.13;;;9.16;94.51
75192;BME280;63771;52.580;9.734;2023-04-01T05:16:16;99219.88;;;9.19;94.54
75192;BME280;63771;52.580;9.734;2023-04-01T05:18:42;99230.03;;;9.19;94.79
75192;BME280;63771;52.580;9.734;2023-04-01T05:21:09;99223.38;;;9.21;94.43
75192;BME280;63771;52.580;9.734;2023-04-01T05:23:34;99216.41;;;9.19;94.46
75192;BME280;63771;52.580;9.734;2023-04-01T05:26:08;99226.78;;;9.22;94.51
75192;BME280;63771;52.580;9.734;2023-04-01T05:28:34;99225.03;;;9.21;94.39
75192;BME280;63771;52.580;9.734;2023-04-01T05:31:00;99224.03;;;9.19;94.55
75192;BME280;63771;52.580;9.734;2023-04-01T05:33:26;99225.13;;;9.22;94.80
75192;BME280;63771;52.580;9.734;2023-04-01T05:35:51;99231.88;;;9.22;94.64
75192;BME280;63771;52.580;9.734;2023-04-01T05:38:17;99227.66;;;9.22;94.72
75192;BME280;63771;52.580;9.734;2023-04-01T05:40:42;99228.47;;;9.21;94.53
75192;BME280;63771;52.580;9.734;2023-04-01T05:43:07;99225.13;;;9.22;94.48
75192;BME280;63771;52.580;9.734;2023-04-01T05:45:34;99233.84;;;9.26;94.73
75192;BME280;63771;52.580;9.734;2023-04-01T05:47:59;99233.06;;;9.27;94.47
75192;BME280;63771;52.580;9.734;2023-04-01T05:50:25;99229.53;;;9.25;94.80
75192;BME280;63771;52.580;9.734;2023-04-01T05:52:50;99234.81;;;9.28;94.46
75192;BME280;63771;52.580;9.734;2023-04-01T05:55:15;99237.47;;;9.29;94.56
75192;BME280;63771;52.580;9.734;2023-04-01T05:57:41;99240.00;;;9.29;94.48
75192;BME280;63771;52.580;9.734;2023-04-01T06:00:07;99243.53;;;9.31;94.73
75192;BME280;63771;52.580;9.734;2023-04-01T06:02:32;99248.63;;;9.31;94.85
75192;BME280;63771;52.580;9.734;2023-04-01T06:05:22;99249.41;;;9.30;94.82
75192;BME280;63771;52.580;9.734;2023-04-01T06:07:55;99251.38;;;9.34;95.03
75192;BME280;63771;52.580;9.734;2023-04-01T06:10:32;99245.47;;;9.35;95.04
75192;BME280;63771;52.580;9.734;2023-04-01T06:13:06;99246.53;;;9.39;94.74
75192;BME280;63771;52.580;9.734;2023-04-01T06:15:40;99247.63;;;9.43;94.88
75192;BME280;63771;52.580;9.734;2023-04-01T06:18:39;99247.81;;;9.46;94.77
75192;BME280;63771;52.580;9.734;2023-04-01T06:26:45;99258.97;;;9.48;95.09
75192;BME280;63771;52.580;9.734;2023-04-01T06:29:22;99254.84;;;9.50;95.02
75192;BME280;63771;52.580;9.734;2023-04-01T06:45:59;99272.88;;;9.81;95.18
75192;BME280;63771;52.580;9.734;2023-04-01T06:48:43;99263.75;;;9.84;95.34
75192;BME280;63771;52.580;9.734;2023-04-01T06:53:58;99270.88;;;10.03;95.70
75192;BME280;63771;52.580;9.734;2023-04-01T06:56:28;99272.31;;;10.13;95.46
75192;BME280;63771;52.580;9.734;2023-04-01T06:59:21;99272.81;;;10.22;95.83
75192;BME280;63771;52.580;9.734;2023-04-01T07:04:31;99272.22;;;10.39;95.57
75192;BME280;63771;52.580;9.734;2023-04-01T07:06:58;99267.63;;;10.49;95.37
75192;BME280;63771;52.580;9.734;2023-04-01T07:09:32;99280.13;;;10.59;95.23
75192;BME280;63771;52.580;9.734;2023-04-01T07:12:11;99280.66;;;10.68;95.24
75192;BME280;63771;52.580;9.734;2023-04-01T07:14:39;99280.31;;;10.77;94.66
75192;BME280;63771;52.580;9.734;2023-04-01T07:17:12;99283.16;;;10.81;93.90
75192;BME280;63771;52.580;9.734;2023-04-01T07:19:45;99286.03;;;10.87;93.62
75192;BME280;63771;52.580;9.734;2023-04-01T07:22:30;99290.53;;;10.91;93.07
75192;BME280;63771;52.580;9.734;2023-04-01T07:25:02;99289.00;;;10.95;92.93
75192;BME280;63771;52.580;9.734;2023-04-01T07:27:28;99291.75;;;10.98;92.58
75192;BME280;63771;52.580;9.734;2023-04-01T07:29:56;99296.13;;;11.01;92.39
75192;BME280;63771;52.580;9.734;2023-04-01T07:32:31;99296.50;;;11.07;92.35
75192;BME280;63771;52.580;9.734;2023-04-01T07:40:40;99305.00;;;11.22;91.19
75192;BME280;63771;52.580;9.734;2023-04-01T07:50:43;99320.91;;;11.47;91.11
75192;BME280;63771;52.580;9.734;2023-04-01T07:59:14;99317.88;;;11.69;90.12
75192;BME280;63771;52.580;9.734;2023-04-01T08:01:54;99330.09;;;11.75;89.49
75192;BME280;63771;52.580;9.734;2023-04-01T08:07:14;99337.56;;;11.87;89.17
75192;BME280;63771;52.580;9.734;2023-04-01T08:15:27;99346.50;;;11.95;88.09
75192;BME280;63771;52.580;9.734;2023-04-01T08:20:52;99342.47;;;11.98;87.28
75192;BME280;63771;52.580;9.734;2023-04-01T08:23:43;99352.06;;;12.02;87.26
75192;BME280;63771;52.580;9.734;2023-04-01T08:26:23;99351.25;;;12.04;87.47
75192;BME280;63771;52.580;9.734;2023-04-01T08:29:01;99354.75;;;12.06;87.52
75192;BME280;63771;52.580;9.734;2023-04-01T08:31:39;99354.75;;;12.06;86.72
75192;BME280;63771;52.580;9.734;2023-04-01T08:34:24;99349.50;;;12.02;87.39
75192;BME280;63771;52.580;9.734;2023-04-01T08:36:58;99359.41;;;12.13;87.28
75192;BME280;63771;52.580;9.734;2023-04-01T08:39:34;99356.44;;;12.21;87.28
75192;BME280;63771;52.580;9.734;2023-04-01T08:42:31;99362.78;;;12.28;87.38
75192;BME280;63771;52.580;9.734;2023-04-01T08:48:12;99362.16;;;12.32;85.71
75192;BME280;63771;52.580;9.734;2023-04-01T08:54:03;99366.78;;;12.39;85.91
75192;BME280;63771;52.580;9.734;2023-04-01T08:56:42;99367.09;;;12.45;86.09
75192;BME280;63771;52.580;9.734;2023-04-01T09:07:45;99374.94;;;12.65;83.65
75192;BME280;63771;52.580;9.734;2023-04-01T09:13:40;99366.28;;;12.63;84.28
75192;BME280;63771;52.580;9.734;2023-04-01T09:22:09;99379.53;;;12.88;81.07
75192;BME280;63771;52.580;9.734;2023-04-01T09:30:05;99388.03;;;12.87;82.36
75192;BME280;63771;52.580;9.734;2023-04-01T09:35:48;99392.28;;;12.87;80.91
75192;BME280;63771;52.580;9.734;2023-04-01T09:45:57;99398.78;;;12.80;78.98
75192;BME280;63771;52.580;9.734;2023-04-01T09:59:04;99412.22;;;12.60;79.56
75192;BME280;63771;52.580;9.734;2023-04-01T10:01:50;99413.97;;;12.61;79.68
75192;BME280;63771;52.580;9.734;2023-04-01T10:15:45;99424.31;;;12.47;81.26
75192;BME280;63771;52.580;9.734;2023-04-01T10:18:27;99427.13;;;12.52;80.99
75192;BME280;63771;52.580;9.734;2023-04-01T10:23:53;99427.38;;;12.57;82.07
75192;BME280;63771;52.580;9.734;2023-04-01T10:28:57;99432.03;;;12.80;78.36
75192;BME280;63771;52.580;9.734;2023-04-01T10:42:43;99435.13;;;13.23;77.62
75192;BME280;63771;52.580;9.734;2023-04-01T10:53:34;99444.88;;;13.30;77.05
75192;BME280;63771;52.580;9.734;2023-04-01T10:56:33;99448.97;;;13.27;76.60
75192;BME280;63771;52.580;9.734;2023-04-01T10:59:28;99446.25;;;13.24;75.46
75192;BME280;63771;52.580;9.734;2023-04-01T11:02:12;99447.94;;;13.23;76.88
75192;BME280;63771;52.580;9.734;2023-04-01T11:19:12;99469.13;;;12.88;81.40
75192;BME280;63771;52.580;9.734;2023-04-01T11:27:55;99477.13;;;12.94;81.57
75192;BME280;63771;52.580;9.734;2023-04-01T11:30:56;99477.94;;;12.93;82.05
75192;BME280;63771;52.580;9.734;2023-04-01T11:33:36;99484.50;;;12.88;82.54
75192;BME280;63771;52.580;9.734;2023-04-01T11:36:33;99491.84;;;12.82;82.45
75192;BME280;63771;52.580;9.734;2023-04-01T11:42:04;99495.66;;;12.58;83.58
75192;BME280;63771;52.580;9.734;2023-04-01T11:44:35;99496.75;;;12.46;83.82
75192;BME280;63771;52.580;9.734;2023-04-01T11:50:21;99509.50;;;12.30;83.63
75192;BME280;63771;52.580;9.734;2023-04-01T11:53:26;99509.88;;;12.21;83.91
75192;BME280;63771;52.580;9.734;2023-04-01T11:58:53;99518.09;;;12.16;85.08
75192;BME280;63771;52.580;9.734;2023-04-01T12:01:34;99514.56;;;12.14;85.08
75192;BME280;63771;52.580;9.734;2023-04-01T12:04:35;99528.44;;;12.17;85.51
75192;BME280;63771;52.580;9.734;2023-04-01T12:07:13;99526.03;;;12.20;85.26
75192;BME280;63771;52.580;9.734;2023-04-01T12:10:03;99533.88;;;12.23;85.29
75192;BME280;63771;52.580;9.734;2023-04-01T12:20:49;99547.19;;;12.33;84.41
75192;BME280;63771;52.580;9.734;2023-04-01T12:26:38;99546.75;;;12.25;84.43
75192;BME280;63771;52.580;9.734;2023-04-01T12:29:19;99555.03;;;12.21;84.49
75192;BME280;63771;52.580;9.734;2023-04-01T12:32:14;99559.00;;;12.16;84.78
75192;BME280;63771;52.580;9.734;2023-04-01T12:35:14;99566.50;;;12.13;85.05
75192;BME280;63771;52.580;9.734;2023-04-01T12:41:11;99565.09;;;12.03;84.95
75192;BME280;63771;52.580;9.734;2023-04-01T12:52:03;99591.66;;;11.90;83.43
75192;BME280;63771;52.580;9.734;2023-04-01T12:59:58;99618.41;;;11.26;84.66
75192;BME280;63771;52.580;9.734;2023-04-01T13:02:37;99619.06;;;11.09;84.63
75192;BME280;63771;52.580;9.734;2023-04-01T13:07:52;99633.25;;;10.77;85.45
75192;BME280;63771;52.580;9.734;2023-04-01T13:13:16;99640.69;;;10.48;86.52
75192;BME280;63771;52.580;9.734;2023-04-01T13:16:24;99650.41;;;10.40;86.79
75192;BME280;63771;52.580;9.734;2023-04-01T13:19:07;99654.22;;;10.33;86.57
75192;BME280;63771;52.580;9.734;2023-04-01T13:24:40;99665.59;;;10.25;86.52
75192;BME280;63771;52.580;9.734;2023-04-01T13:27:16;99665.44;;;10.10;86.03
75192;BME280;63771;52.580;9.734;2023-04-01T13:30:02;99672.59;;;10.03;86.67
75192;BME280;63771;52.580;9.734;2023-04-01T13:42:45;99687.00;;;9.65;87.89
75192;BME280;63771;52.580;9.734;2023-04-01T13:45:15;99703.97;;;9.65;88.29
75192;BME280;63771;52.580;9.734;2023-04-01T13:56:37;99723.72;;;9.56;87.61
75192;BME280;63771;52.580;9.734;2023-04-01T13:59:31;99727.06;;;9.43;87.81
75192;BME280;63771;52.580;9.734;2023-04-01T14:02:20;99730.63;;;9.33;88.16
75192;BME280;63771;52.580;9.734;2023-04-01T14:08:01;99728.31;;;9.36;88.91
75192;BME280;63771;52.580;9.734;2023-04-01T14:10:37;99727.63;;;9.39;87.74
75192;BME280;63771;52.580;9.734;2023-04-01T14:22:42;99750.97;;;9.33;87.60
75192;BME280;63771;52.580;9.734;2023-04-01T14:25:32;99768.94;;;9.35;87.89
75192;BME280;63771;52.580;9.734;2023-04-01T14:30:54;99774.56;;;9.31;87.56
75192;BME280;63771;52.580;9.734;2023-04-01T14:47:50;99808.97;;;9.02;86.27
75192;BME280;63771;52.580;9.734;2023-04-01T14:50:22;99783.31;;;8.87;86.72
75192;BME280;63771;52.580;9.734;2023-04-01T14:55:45;99810.53;;;8.88;86.05
75192;BME280;63771;52.580;9.734;2023-04-01T14:58:15;99823.34;;;8.78;87.22
75192;BME280;63771;52.580;9.734;2023-04-01T15:08:52;99840.75;;;8.62;87.22
75192;BME280;63771;52.580;9.734;2023-04-01T15:11:25;99846.13;;;8.55;86.55
75192;BME280;63771;52.580;9.734;2023-04-01T15:16:50;99852.19;;;8.45;88.02
75192;BME280;63771;52.580;9.734;2023-04-01T15:22:02;99862.78;;;8.40;86.89
75192;BME280;63771;52.580;9.734;2023-04-01T15:24:46;99883.28;;;8.31;87.18
75192;BME280;63771;52.580;9.734;2023-04-01T15:27:33;99882.81;;;8.25;87.64
75192;BME280;63771;52.580;9.734;2023-04-01T15:36:07;99895.78;;;8.18;87.97
75192;BME280;63771;52.580;9.734;2023-04-01T15:39:05;99903.50;;;8.19;87.98
75192;BME280;63771;52.580;9.734;2023-04-01T15:55:41;99926.97;;;8.05;88.31
75192;BME280;63771;52.580;9.734;2023-04-01T15:58:21;99937.50;;;8.09;87.42
75192;BME280;63771;52.580;9.734;2023-04-01T16:01:14;99937.91;;;8.04;87.96
75192;BME280;63771;52.580;9.734;2023-04-01T16:06:57;99955.31;;;7.99;89.00
75192;BME280;63771;52.580;9.734;2023-04-01T16:09:57;99964.81;;;8.02;88.36
75192;BME280;63771;52.580;9.734;2023-04-01T16:15:37;99974.25;;;7.93;88.75
75192;BME280;63771;52.580;9.734;2023-04-01T16:21:02;99988.78;;;7.83;88.25
75192;BME280;63771;52.580;9.734;2023-04-01T16:23:37;99992.59;;;7.78;89.08
75192;BME280;63771;52.580;9.734;2023-04-01T16:26:22;99995.25;;;7.80;87.10
75192;BME280;63771;52.580;9.734;2023-04-01T16:29:05;99990.44;;;7.73;87.10
75192;BME280;63771;52.580;9.734;2023-04-01T16:31:43;99998.19;;;7.64;86.94
75192;BME280;63771;52.580;9.734;2023-04-01T16:34:18;100000.47;;;7.61;87.97
75192;BME280;63771;52.580;9.734;2023-04-01T16:36:49;100009.13;;;7.53;89.00
75192;BME280;63771;52.580;9.734;2023-04-01T16:42:40;100022.19;;;7.47;89.01
75192;BME280;63771;52.580;9.734;2023-04-01T16:48:07;100037.53;;;7.39;87.66
75192;BME280;63771;52.580;9.734;2023-04-01T16:51:03;100043.63;;;7.30;88.13
75192;BME280;63771;52.580;9.734;2023-04-01T16:53:59;100049.47;;;7.29;87.79
75192;BME280;63771;52.580;9.734;2023-04-01T16:56:38;100065.56;;;7.20;87.48
75192;BME280;63771;52.580;9.734;2023-04-01T16:59:12;100063.91;;;7.10;88.53
75192;BME280;63771;52.580;9.734;2023-04-01T17:04:35;100087.22;;;7.06;88.83
75192;BME280;63771;52.580;9.734;2023-04-01T17:07:15;100093.81;;;7.04;88.57
75192;BME280;63771;52.580;9.734;2023-04-01T17:13:03;100098.13;;;6.95;89.79
75192;BME280;63771;52.580;9.734;2023-04-01T17:18:02;100112.06;;;7.00;88.54
75192;BME280;63771;52.580;9.734;2023-04-01T17:28:48;100137.41;;;6.90;89.37
75192;BME280;63771;52.580;9.734;2023-04-01T17:34:32;100146.50;;;6.88;88.79
75192;BME280;63771;52.580;9.734;2023-04-01T17:37:26;100153.69;;;6.83;89.03
75192;BME280;63771;52.580;9.734;2023-04-01T17:40:15;100170.03;;;6.76;88.76
75192;BME280;63771;52.580;9.734;2023-04-01T17:42:46;100162.03;;;6.72;88.88
75192;BME280;63771;52.580;9.734;2023-04-01T17:45:21;100174.81;;;6.63;88.89
75192;BME280;63771;52.580;9.734;2023-04-01T17:48:01;100175.88;;;6.57;88.53
75192;BME280;63771;52.580;9.734;2023-04-01T17:50:42;100177.75;;;6.49;88.46
75192;BME280;63771;52.580;9.734;2023-04-01T17:56:08;100199.31;;;6.35;88.93
75192;BME280;63771;52.580;9.734;2023-04-01T17:58:44;100199.44;;;6.37;89.16
75192;BME280;63771;52.580;9.734;2023-04-01T18:01:43;100210.50;;;6.37;89.19
75192;BME280;63771;52.580;9.734;2023-04-01T18:04:34;100223.97;;;6.27;89.60
75192;BME280;63771;52.580;9.734;2023-04-01T18:09:49;100226.63;;;6.29;89.38
75192;BME280;63771;52.580;9.734;2023-04-01T18:20:31;100260.09;;;6.16;89.28
75192;BME280;63771;52.580;9.734;2023-04-01T18:23:03;100262.13;;;6.20;88.65
75192;BME280;63771;52.580;9.734;2023-04-01T18:25:39;100270.81;;;6.14;88.35
75192;BME280;63771;52.580;9.734;2023-04-01T18:28:24;100271.91;;;6.07;87.85
75192;BME280;63771;52.580;9.734;2023-04-01T18:31:20;100281.06;;;5.96;88.64
75192;BME280;63771;52.580;9.734;2023-04-01T18:34:07;100270.28;;;5.99;88.46
75192;BME280;63771;52.580;9.734;2023-04-01T18:36:50;100299.53;;;5.95;88.47
75192;BME280;63771;52.580;9.734;2023-04-01T18:42:16;100303.97;;;5.89;89.34
75192;BME280;63771;52.580;9.734;2023-04-01T18:44:55;100314.72;;;5.87;89.36
75192;BME280;63771;52.580;9.734;2023-04-01T18:50:34;100331.97;;;5.91;89.76
75192;BME280;63771;52.580;9.734;2023-04-01T18:56:01;100336.72;;;5.88;90.30
75192;BME280;63771;52.580;9.734;2023-04-01T19:01:12;100355.78;;;5.84;89.94
75192;BME280;63771;52.580;9.734;2023-04-01T19:06:23;100365.03;;;5.84;88.94
75192;BME280;63771;52.580;9.734;2023-04-01T19:08:52;100358.97;;;5.73;88.85
75192;BME280;63771;52.580;9.734;2023-04-01T19:14:56;100387.88;;;5.66;88.99
75192;BME280;63771;52.580;9.734;2023-04-01T19:20:31;100387.09;;;5.67;88.15
75192;BME280;63771;52.580;9.734;2023-04-01T19:25:57;100410.34;;;5.63;88.83
75192;BME280;63771;52.580;9.734;2023-04-01T19:28:54;100413.34;;;5.59;89.43
75192;BME280;63771;52.580;9.734;2023-04-01T19:31:38;100417.50;;;5.59;89.47
75192;BME280;63771;52.580;9.734;2023-04-01T19:36:49;100425.97;;;5.50;90.12
75192;BME280;63771;52.580;9.734;2023-04-01T19:44:51;100445.03;;;5.38;88.84
75192;BME280;63771;52.580;9.734;2023-04-01T19:47:49;100461.22;;;5.32;89.29
75192;BME280;63771;52.580;9.734;2023-04-01T19:52:47;100460.03;;;5.19;89.74
75192;BME280;63771;52.580;9.734;2023-04-01T19:55:27;100469.13;;;5.35;90.38
75192;BME280;63771;52.580;9.734;2023-04-01T19:58:31;100473.91;;;5.40;89.52
75192;BME280;63771;52.580;9.734;2023-04-01T20:00:59;100482.81;;;5.37;88.42
75192;BME280;63771;52.580;9.734;2023-04-01T20:03:50;100488.63;;;5.36;88.29
75192;BME280;63771;52.580;9.734;2023-04-01T20:06:36;100490.97;;;5.26;88.95
75192;BME280;63771;52.580;9.734;2023-04-01T20:12:00;100517.16;;;5.17;88.77
75192;BME280;63771;52.580;9.734;2023-04-01T20:14:36;100522.50;;;5.12;88.86
75192;BME280;63771;52.580;9.734;2023-04-01T20:17:24;100521.00;;;5.14;88.66
75192;BME280;63771;52.580;9.734;2023-04-01T20:19:59;100532.88;;;5.06;88.95